Time,TemperatureF,DewpointF,PressureIn,WindDirection,WindDirectionDegrees,WindSpeedMPH,WindSpeedGustMPH,Humidity,HourlyPrecipIn,Conditions,Clouds,dailyrainin,SoftwareType,DateUTC
2013-02-10 00:00:00,20.7,15.8,23.71,SE,141,0.0,0.0,81,0.00,,FEW065,0.00,VWS V14.01,2013-02-10 07:00:00,
2013-02-10 00:05:00,20.5,15.6,23.71,SE,141,0.0,0.0,81,0.00,,FEW065,0.00,VWS V14.01,2013-02-10 07:05:00,
2013-02-10 00:10:00,19.9,14.8,23.71,SE,141,0.0,0.0,80,0.00,,FEW065,0.00,VWS V14.01,2013-02-10 07:10:00,
2013-02-10 00:15:00,19.6,14.4,23.74,SE,141,0.0,0.0,80,0.00,,FEW065,0.00,VWS V14.01,2013-02-10 07:15:00,
2013-02-10 00:20:00,19.6,14.4,23.74,SE,141,0.0,0.0,80,0.00,,FEW065,0.00,VWS V14.01,2013-02-10 07:20:00,
2013-02-10 00:25:00,19.6,14.7,23.74,SE,141,0.0,0.0,81,0.00,,FEW065,0.00,VWS V14.01,2013-02-10 07:25:00,
2013-02-10 00:30:00,19.6,14.7,23.74,SE,141,0.0,0.0,81,0.00,,FEW065,0.00,VWS V14.01,2013-02-10 07:30:00,
2013-02-10 00:35:00,19.6,14.7,23.74,SE,141,0.0,0.0,81,0.00,,FEW065,0.00,VWS V14.01,2013-02-10 07:35:00,
2013-02-10 00:40:00,19.4,14.5,23.74,SE,141,0.0,0.0,81,0.00,,FEW065,0.00,VWS V14.01,2013-02-10 07:40:00,
2013-02-10 00:45:00,19.4,14.5,23.71,SE,141,0.0,0.0,81,0.00,,FEW065,0.00,VWS V14.01,2013-02-10 07:45:00,
2013-02-10 00:50:00,19.2,14.4,23.71,SE,141,0.0,0.0,81,0.00,,CLR,0.00,VWS V14.01,2013-02-10 07:50:00,
2013-02-10 00:55:00,19.0,14.2,23.71,SE,141,0.0,0.0,81,0.00,,CLR,0.00,VWS V14.01,2013-02-10 07:55:00,
2013-02-10 01:00:00,19.0,14.2,23.74,SE,141,0.0,0.0,81,0.00,,CLR,0.00,VWS V14.01,2013-02-10 08:00:00,
2013-02-10 01:05:00,19.0,14.2,23.74,SE,141,0.0,0.0,81,0.00,,CLR,0.00,VWS V14.01,2013-02-10 08:05:00,
2013-02-10 01:10:00,19.2,14.6,23.74,SE,141,0.0,0.0,82,0.00,,CLR,0.00,VWS V14.01,2013-02-10 08:10:00,
2013-02-10 01:15:00,19.4,14.8,23.74,SE,141,0.0,0.0,82,0.00,,CLR,0.00,VWS V14.01,2013-02-10 08:15:00,
2013-02-10 01:20:00,19.6,15.0,23.74,SSE,165,0.0,0.0,82,0.00,,CLR,0.00,VWS V14.01,2013-02-10 08:20:00,
2013-02-10 01:25:00,19.6,15.0,23.74,South,188,0.0,0.0,82,0.00,,CLR,0.00,VWS V14.01,2013-02-10 08:25:00,
2013-02-10 01:30:00,19.8,15.2,23.71,South,190,0.0,0.0,82,0.00,,CLR,0.00,VWS V14.01,2013-02-10 08:30:00,
2013-02-10 01:34:00,20.1,15.8,23.71,SSW,197,0.0,0.0,83,0.00,,CLR,0.00,VWS V14.01,2013-02-10 08:34:00,
2013-02-10 01:40:00,20.3,16.2,23.71,WSW,238,0.0,0.0,84,0.00,,CLR,0.00,VWS V14.01,2013-02-10 08:40:00,
2013-02-10 01:44:00,20.5,16.4,23.71,SSW,206,0.0,0.0,84,0.00,,CLR,0.00,VWS V14.01,2013-02-10 08:44:00,
2013-02-10 01:49:00,20.7,16.6,23.71,SSW,207,0.0,0.0,84,0.00,,CLR,0.00,VWS V14.01,2013-02-10 08:49:00,
2013-02-10 01:54:00,20.7,16.6,23.71,SSW,196,0.0,0.0,84,0.00,,CLR,0.00,VWS V14.01,2013-02-10 08:54:00,
2013-02-10 01:59:00,20.5,16.4,23.71,SSW,196,0.0,0.0,84,0.00,,CLR,0.00,VWS V14.01,2013-02-10 08:59:00,
2013-02-10 02:04:00,20.5,16.1,23.71,SSW,196,0.0,0.0,83,0.00,,CLR,0.00,VWS V14.01,2013-02-10 09:04:00,
2013-02-10 02:09:00,20.7,16.3,23.71,SSW,196,0.0,0.0,83,0.00,,CLR,0.00,VWS V14.01,2013-02-10 09:09:00,
2013-02-10 02:14:00,20.7,16.3,23.71,SW,229,0.0,0.0,83,0.00,,CLR,0.00,VWS V14.01,2013-02-10 09:14:00,
2013-02-10 02:19:00,20.7,16.3,23.71,SW,229,0.0,0.0,83,0.00,,CLR,0.00,VWS V14.01,2013-02-10 09:19:00,
2013-02-10 02:24:00,20.8,16.5,23.71,SW,234,0.0,0.0,83,0.00,,CLR,0.00,VWS V14.01,2013-02-10 09:24:00,
2013-02-10 02:29:00,20.8,16.5,23.71,SW,234,0.0,0.0,83,0.00,,CLR,0.00,VWS V14.01,2013-02-10 09:29:00,
2013-02-10 02:34:00,20.8,16.5,23.71,SW,233,0.0,0.0,83,0.00,,CLR,0.00,VWS V14.01,2013-02-10 09:34:00,
2013-02-10 02:39:00,20.8,16.5,23.71,SW,233,0.0,0.0,83,0.00,,,0.00,VWS V14.01,2013-02-10 09:39:00,
2013-02-10 02:44:00,20.7,16.0,23.71,SW,233,0.0,0.0,82,0.00,,,0.00,VWS V14.01,2013-02-10 09:44:00,
2013-02-10 02:49:00,20.7,16.0,23.71,SSW,205,0.0,3.1,82,0.00,,CLR,0.00,VWS V14.01,2013-02-10 09:49:00,
2013-02-10 02:54:00,20.8,16.2,23.71,SW,229,0.0,3.1,82,0.00,,CLR,0.00,VWS V14.01,2013-02-10 09:54:00,
2013-02-10 02:59:00,20.7,16.0,23.71,SSW,209,0.0,3.1,82,0.00,,CLR,0.00,VWS V14.01,2013-02-10 09:59:00,
2013-02-10 03:04:00,20.5,15.9,23.71,SSW,206,0.0,0.0,82,0.00,,CLR,0.00,VWS V14.01,2013-02-10 10:04:00,
2013-02-10 03:09:00,20.5,15.9,23.71,SSW,206,0.0,0.0,82,0.00,,CLR,0.00,VWS V14.01,2013-02-10 10:09:00,
2013-02-10 03:14:00,20.3,15.7,23.71,SSW,206,0.0,0.0,82,0.00,,CLR,0.00,VWS V14.01,2013-02-10 10:14:00,
2013-02-10 03:19:00,20.3,15.7,23.71,SSW,206,0.0,0.0,82,0.00,,CLR,0.00,VWS V14.01,2013-02-10 10:19:00,
2013-02-10 03:24:00,20.3,15.7,23.71,SSW,206,0.0,0.0,82,0.00,,CLR,0.00,VWS V14.01,2013-02-10 10:24:00,
2013-02-10 03:29:00,20.1,15.5,23.71,SSW,206,0.0,0.0,82,0.00,,CLR,0.00,VWS V14.01,2013-02-10 10:29:00,
2013-02-10 03:34:00,20.1,15.5,23.71,WSW,244,0.0,0.0,82,0.00,,CLR,0.00,VWS V14.01,2013-02-10 10:34:00,
2013-02-10 03:39:00,20.1,15.5,23.71,WSW,238,0.0,0.0,82,0.00,,,0.00,VWS V14.01,2013-02-10 10:39:00,
2013-02-10 03:44:00,19.9,15.3,23.71,SSW,208,0.0,0.0,82,0.00,,,0.00,VWS V14.01,2013-02-10 10:44:00,
2013-02-10 03:49:00,19.9,15.3,23.71,SSW,197,0.0,0.0,82,0.00,,CLR,0.00,VWS V14.01,2013-02-10 10:49:00,
2013-02-10 03:54:00,19.8,15.2,23.71,SSW,198,0.0,0.0,82,0.00,,CLR,0.00,VWS V14.01,2013-02-10 10:54:00,
2013-02-10 03:59:00,19.9,15.3,23.71,SSW,207,0.0,3.1,82,0.00,,CLR,0.00,VWS V14.01,2013-02-10 10:59:00,
2013-02-10 04:04:00,19.9,15.3,23.71,WSW,257,0.0,2.7,82,0.00,,CLR,0.00,VWS V14.01,2013-02-10 11:04:00,
2013-02-10 04:09:00,20.1,15.5,23.71,SSW,192,0.0,0.0,82,0.00,,CLR,0.00,VWS V14.01,2013-02-10 11:09:00,
2013-02-10 04:14:00,20.1,15.8,23.71,SSW,192,0.0,0.0,83,0.00,,CLR,0.00,VWS V14.01,2013-02-10 11:14:00,
2013-02-10 04:19:00,20.3,16.0,23.71,SSW,194,0.0,0.0,83,0.00,,CLR,0.00,VWS V14.01,2013-02-10 11:19:00,
2013-02-10 04:24:00,20.3,16.0,23.71,SSW,194,0.0,0.0,83,0.00,,CLR,0.00,VWS V14.01,2013-02-10 11:24:00,
2013-02-10 04:29:00,20.3,16.0,23.71,SSW,194,0.0,0.0,83,0.00,,CLR,0.00,VWS V14.01,2013-02-10 11:29:00,
2013-02-10 04:34:00,20.1,15.8,23.71,SSW,194,0.0,0.0,83,0.00,,CLR,0.00,VWS V14.01,2013-02-10 11:34:00,
2013-02-10 04:39:00,20.1,15.8,23.71,SSW,194,0.0,0.0,83,0.00,,CLR,0.00,VWS V14.01,2013-02-10 11:39:00,
2013-02-10 04:44:00,20.3,16.0,23.71,South,180,0.0,0.0,83,0.00,,CLR,0.00,VWS V14.01,2013-02-10 11:44:00,
2013-02-10 04:49:00,20.3,16.0,23.71,SSW,200,0.0,0.0,83,0.00,,CLR,0.00,VWS V14.01,2013-02-10 11:49:00,
2013-02-10 04:54:00,20.8,16.8,23.71,SSW,200,0.0,0.0,84,0.00,,CLR,0.00,VWS V14.01,2013-02-10 11:54:00,
2013-02-10 04:59:00,21.2,17.4,23.71,SSW,204,0.0,2.2,85,0.00,,CLR,0.00,VWS V14.01,2013-02-10 11:59:00,
2013-02-10 05:04:00,21.6,17.8,23.71,SSW,204,0.0,0.0,85,0.00,,CLR,0.00,VWS V14.01,2013-02-10 12:04:00,
2013-02-10 05:09:00,21.7,17.9,23.71,SSW,204,0.0,0.0,85,0.00,,,0.00,VWS V14.01,2013-02-10 12:09:00,
2013-02-10 05:14:00,21.9,18.4,23.71,South,181,0.0,0.0,86,0.00,,,0.00,VWS V14.01,2013-02-10 12:14:00,
2013-02-10 05:19:00,21.9,18.1,23.71,South,181,0.0,0.0,85,0.00,,CLR,0.00,VWS V14.01,2013-02-10 12:19:00,
2013-02-10 05:24:00,22.1,18.3,23.71,SW,220,0.0,0.0,85,0.00,,CLR,0.00,VWS V14.01,2013-02-10 12:24:00,
2013-02-10 05:29:00,22.5,18.9,23.68,SW,220,0.0,0.0,86,0.00,,CLR,0.00,VWS V14.01,2013-02-10 12:29:00,
2013-02-10 05:34:00,22.8,19.3,23.68,SW,220,0.0,0.0,86,0.00,,CLR,0.00,VWS V14.01,2013-02-10 12:34:00,
2013-02-10 05:39:00,22.8,19.3,23.68,SW,216,0.0,0.0,86,0.00,,,0.00,VWS V14.01,2013-02-10 12:39:00,
2013-02-10 05:44:00,23.0,19.5,23.68,West,263,0.0,0.0,86,0.00,,,0.00,VWS V14.01,2013-02-10 12:44:00,
2013-02-10 05:49:00,23.5,20.0,23.68,West,274,0.0,0.0,86,0.00,,CLR,0.00,VWS V14.01,2013-02-10 12:49:00,
2013-02-10 05:54:00,23.7,20.1,23.68,West,274,0.0,0.0,86,0.00,,CLR,0.00,VWS V14.01,2013-02-10 12:54:00,
2013-02-10 05:59:00,23.9,20.3,23.68,West,271,0.0,0.0,86,0.00,,CLR,0.00,VWS V14.01,2013-02-10 12:59:00,
2013-02-10 06:04:00,24.3,20.7,23.68,NNE,33,0.0,0.0,86,0.00,,CLR,0.00,VWS V14.01,2013-02-10 13:04:00,
2013-02-10 06:09:00,24.4,20.9,23.68,North,0,0.0,3.6,86,0.00,,,0.00,VWS V14.01,2013-02-10 13:09:00,
2013-02-10 06:14:00,24.4,20.9,23.68,NW,304,0.0,3.6,86,0.00,,,0.00,VWS V14.01,2013-02-10 13:14:00,
2013-02-10 06:19:00,24.6,21.0,23.68,WNW,303,0.0,3.6,86,0.00,,,0.00,VWS V14.01,2013-02-10 13:19:00,
2013-02-10 06:24:00,24.8,21.2,23.68,WNW,297,0.0,0.0,86,0.00,,,0.00,VWS V14.01,2013-02-10 13:24:00,
2013-02-10 06:29:00,24.8,21.2,23.68,NNW,327,0.0,0.0,86,0.00,,,0.00,VWS V14.01,2013-02-10 13:29:00,
2013-02-10 06:34:00,25.0,21.1,23.68,SW,234,0.0,0.0,85,0.00,,CLR,0.00,VWS V14.01,2013-02-10 13:34:00,
2013-02-10 06:39:00,25.0,21.1,23.68,SW,234,0.0,0.0,85,0.00,,CLR,0.00,VWS V14.01,2013-02-10 13:39:00,
2013-02-10 06:44:00,25.0,21.1,23.68,NW,304,0.0,3.6,85,0.00,,CLR,0.00,VWS V14.01,2013-02-10 13:44:00,
2013-02-10 06:49:00,25.2,21.3,23.68,North,0,0.0,3.6,85,0.00,,SCT042,0.00,VWS V14.01,2013-02-10 13:49:00,
2013-02-10 06:54:00,25.3,21.5,23.68,WNW,299,0.0,3.6,85,0.00,,SCT042,0.00,VWS V14.01,2013-02-10 13:54:00,
2013-02-10 06:59:00,25.5,21.4,23.68,North,11,2.2,3.6,84,0.00,,SCT042,0.00,VWS V14.01,2013-02-10 13:59:00,
2013-02-10 07:04:00,25.5,21.4,23.68,North,0,0.0,2.2,84,0.00,,SCT042,0.00,VWS V14.01,2013-02-10 14:04:00,
2013-02-10 07:09:00,25.7,21.3,23.68,North,0,0.0,0.0,83,0.00,,SCT042,0.00,VWS V14.01,2013-02-10 14:09:00,
2013-02-10 07:14:00,25.7,21.3,23.68,NW,321,0.0,0.0,83,0.00,,SCT042,0.00,VWS V14.01,2013-02-10 14:14:00,
2013-02-10 07:19:00,25.9,21.4,23.68,NW,321,0.0,0.0,83,0.00,,SCT042,0.00,VWS V14.01,2013-02-10 14:19:00,
2013-02-10 07:24:00,25.9,21.4,23.68,NNE,26,0.0,0.0,83,0.00,,SCT042,0.00,VWS V14.01,2013-02-10 14:24:00,
2013-02-10 07:29:00,25.9,21.1,23.68,SW,224,0.0,0.0,82,0.00,,SCT042,0.00,VWS V14.01,2013-02-10 14:29:00,
2013-02-10 07:34:00,26.1,21.0,23.68,North,2,0.0,3.6,81,0.00,,SCT042,0.00,VWS V14.01,2013-02-10 14:34:00,
2013-02-10 07:39:00,26.2,20.9,23.68,NNW,334,0.0,4.9,80,0.00,,SCT042,0.00,VWS V14.01,2013-02-10 14:39:00,
2013-02-10 07:44:00,26.6,21.0,23.68,NW,321,2.7,5.4,79,0.00,,SCT042,0.00,VWS V14.01,2013-02-10 14:44:00,
2013-02-10 07:49:00,27.0,21.0,23.68,North,350,0.0,5.4,78,0.00,,BKN042,0.00,VWS V14.01,2013-02-10 14:49:00,
2013-02-10 07:54:00,27.1,20.9,23.68,NW,326,0.0,5.4,77,0.00,,BKN042,0.00,VWS V14.01,2013-02-10 14:54:00,
2013-02-10 07:59:00,27.5,21.2,23.68,North,6,2.2,5.4,77,0.00,,BKN042,0.00,VWS V14.01,2013-02-10 14:59:00,
2013-02-10 08:04:00,27.5,20.6,23.68,NW,311,3.6,3.6,75,0.00,,BKN042,0.00,VWS V14.01,2013-02-10 15:04:00,
2013-02-10 08:09:00,27.7,20.2,23.68,WNW,289,0.0,0.0,73,0.00,,BKN042,0.00,VWS V14.01,2013-02-10 15:09:00,
2013-02-10 08:14:00,27.7,19.5,23.68,NNW,345,2.2,5.8,71,0.00,,BKN042,0.00,VWS V14.01,2013-02-10 15:14:00,
2013-02-10 08:19:00,27.9,19.4,23.68,West,263,4.0,5.8,70,0.00,,BKN042,0.00,VWS V14.01,2013-02-10 15:19:00,
2013-02-10 08:24:00,27.9,19.7,23.68,West,266,0.0,3.1,71,0.00,,BKN042,0.00,VWS V14.01,2013-02-10 15:24:00,
2013-02-10 08:29:00,28.2,19.7,23.71,West,276,0.0,4.9,70,0.00,,BKN042,0.00,VWS V14.01,2013-02-10 15:29:00,
2013-02-10 08:34:00,28.6,20.0,23.71,ENE,61,0.0,4.9,70,0.00,,BKN042,0.00,VWS V14.01,2013-02-10 15:34:00,
2013-02-10 08:39:00,28.9,20.4,23.71,NNW,331,0.0,4.0,70,0.00,,,0.00,VWS V14.01,2013-02-10 15:39:00,
2013-02-10 08:44:00,29.3,20.4,23.71,SSW,210,0.0,5.4,69,0.00,,,0.00,VWS V14.01,2013-02-10 15:44:00,
2013-02-10 08:49:00,29.3,20.1,23.71,NW,312,3.6,5.8,68,0.00,,BKN042,0.00,VWS V14.01,2013-02-10 15:49:00,
2013-02-10 08:54:00,29.5,19.9,23.71,NW,321,0.0,5.8,67,0.00,,BKN042,0.00,VWS V14.01,2013-02-10 15:54:00,
2013-02-10 08:59:00,29.7,19.7,23.71,NW,310,2.7,5.8,66,0.00,,BKN042,0.00,VWS V14.01,2013-02-10 15:59:00,
2013-02-10 09:04:00,29.8,19.9,23.71,NNW,335,3.1,6.3,66,0.00,,BKN042,0.00,VWS V14.01,2013-02-10 16:04:00,
2013-02-10 09:09:00,30.0,20.0,23.71,East,88,0.0,0.0,66,0.00,,BKN042,0.00,VWS V14.01,2013-02-10 16:09:00,
2013-02-10 09:14:00,30.4,19.7,23.71,NW,314,2.2,4.0,64,0.00,,BKN042,0.00,VWS V14.01,2013-02-10 16:14:00,
2013-02-10 09:19:00,30.9,19.8,23.71,SW,225,2.2,4.9,63,0.00,,BKN042,0.00,VWS V14.01,2013-02-10 16:19:00,
2013-02-10 09:24:00,31.3,20.2,23.71,NW,318,0.0,0.0,63,0.00,,BKN042,0.00,VWS V14.01,2013-02-10 16:24:00,
2013-02-10 09:29:00,31.3,19.8,23.71,WNW,291,2.7,3.1,62,0.00,,BKN042,0.00,VWS V14.01,2013-02-10 16:29:00,
2013-02-10 09:34:00,31.1,19.2,23.71,South,175,3.1,4.9,61,0.00,,BKN042,0.00,VWS V14.01,2013-02-10 16:34:00,
2013-02-10 09:39:00,31.1,19.6,23.71,NNW,343,0.0,4.0,62,0.00,,BKN042,0.00,VWS V14.01,2013-02-10 16:39:00,
2013-02-10 09:44:00,31.5,20.0,23.71,WNW,302,7.6,7.6,62,0.00,,BKN042,0.00,VWS V14.01,2013-02-10 16:44:00,
2013-02-10 09:49:00,31.8,20.3,23.71,North,1,0.0,7.6,62,0.00,,BKN046,0.00,VWS V14.01,2013-02-10 16:49:00,
2013-02-10 09:54:00,32.2,19.5,23.71,West,264,0.0,7.6,59,0.00,,BKN046,0.00,VWS V14.01,2013-02-10 16:54:00,
2013-02-10 09:59:00,32.2,19.1,23.71,North,357,0.0,7.6,58,0.00,,BKN046,0.00,VWS V14.01,2013-02-10 16:59:00,
2013-02-10 10:04:00,32.2,19.5,23.71,North,0,3.1,6.3,59,0.00,,BKN046,0.00,VWS V14.01,2013-02-10 17:04:00,
2013-02-10 10:09:00,32.2,19.5,23.71,NNW,346,3.1,4.9,59,0.00,,BKN046,0.00,VWS V14.01,2013-02-10 17:09:00,
2013-02-10 10:14:00,32.2,18.3,23.71,NE,50,3.6,8.1,56,0.00,,BKN046,0.00,VWS V14.01,2013-02-10 17:14:00,
2013-02-10 10:19:00,32.2,18.3,23.71,NW,323,3.6,8.1,56,0.00,,BKN046,0.00,VWS V14.01,2013-02-10 17:19:00,
2013-02-10 10:24:00,32.0,18.5,23.71,North,0,0.0,4.0,57,0.00,,BKN046,0.00,VWS V14.01,2013-02-10 17:24:00,
2013-02-10 10:29:00,31.8,18.7,23.71,North,357,3.1,5.8,58,0.00,,BKN046,0.00,VWS V14.01,2013-02-10 17:29:00,
2013-02-10 10:34:00,31.5,18.0,23.71,West,280,3.6,5.8,57,0.00,,BKN046,0.00,VWS V14.01,2013-02-10 17:34:00,
2013-02-10 10:39:00,31.6,18.6,23.71,South,183,2.2,5.8,58,0.00,,BKN046,0.00,VWS V14.01,2013-02-10 17:39:00,
2013-02-10 10:44:00,32.0,19.3,23.71,WSW,255,4.9,5.4,59,0.00,,BKN046,0.00,VWS V14.01,2013-02-10 17:44:00,
2013-02-10 10:49:00,32.4,19.6,23.71,WSW,240,4.0,5.4,59,0.00,,BKN050,0.00,VWS V14.01,2013-02-10 17:49:00,
2013-02-10 10:54:00,32.7,19.6,23.71,NE,39,0.0,5.4,58,0.00,,BKN050,0.00,VWS V14.01,2013-02-10 17:54:00,
2013-02-10 10:59:00,32.5,18.6,23.71,East,87,8.3,8.7,56,0.00,,BKN050,0.00,VWS V14.01,2013-02-10 17:59:00,
2013-02-10 11:04:00,32.5,19.0,23.71,East,86,3.1,8.3,57,0.00,,BKN050,0.00,VWS V14.01,2013-02-10 18:04:00,
2013-02-10 11:09:00,32.7,19.2,23.71,SW,230,0.0,4.9,57,0.00,,BKN050,0.00,VWS V14.01,2013-02-10 18:09:00,
2013-02-10 11:14:00,32.9,18.9,23.71,NNW,338,4.0,5.4,56,0.00,,BKN050,0.00,VWS V14.01,2013-02-10 18:14:00,
2013-02-10 11:19:00,32.5,18.6,23.71,North,353,3.6,5.8,56,0.00,,BKN050,0.00,VWS V14.01,2013-02-10 18:19:00,
2013-02-10 11:24:00,32.5,19.4,23.71,ESE,119,2.2,4.0,58,0.00,,BKN050,0.00,VWS V14.01,2013-02-10 18:24:00,
2013-02-10 11:29:00,32.7,20.4,23.71,NW,320,3.6,4.0,60,0.00,,BKN050,0.00,VWS V14.01,2013-02-10 18:29:00,
2013-02-10 11:34:00,33.3,21.7,23.71,East,81,5.4,5.8,62,0.00,,BKN050,0.00,VWS V14.01,2013-02-10 18:34:00,
2013-02-10 11:39:00,33.3,20.1,23.71,NNE,14,3.1,6.3,58,0.00,,,0.00,VWS V14.01,2013-02-10 18:39:00,
2013-02-10 11:44:00,33.3,20.9,23.71,North,3,0.0,4.0,60,0.00,,,0.00,VWS V14.01,2013-02-10 18:44:00,
2013-02-10 11:49:00,33.4,20.7,23.71,NNW,343,2.7,5.8,59,0.00,,BKN055,0.00,VWS V14.01,2013-02-10 18:49:00,
2013-02-10 11:54:00,33.4,21.1,23.71,West,272,0.0,5.8,60,0.00,,BKN055,0.00,VWS V14.01,2013-02-10 18:54:00,
2013-02-10 11:59:00,33.1,19.9,23.68,NNW,340,2.7,7.6,58,0.00,,BKN055,0.00,VWS V14.01,2013-02-10 18:59:00,
2013-02-10 12:04:00,32.9,20.2,23.68,SW,228,3.6,6.3,59,0.00,,BKN055,0.00,VWS V14.01,2013-02-10 19:04:00,
2013-02-10 12:09:00,33.1,20.7,23.68,NNW,329,3.6,4.0,60,0.00,,BKN055,0.00,VWS V14.01,2013-02-10 19:09:00,
2013-02-10 12:14:00,33.4,21.8,23.68,ENE,74,3.1,4.0,62,0.00,,BKN055,0.00,VWS V14.01,2013-02-10 19:14:00,
2013-02-10 12:19:00,33.6,21.6,23.68,NNE,32,2.7,4.9,61,0.00,,BKN055,0.00,VWS V14.01,2013-02-10 19:19:00,
2013-02-10 12:24:00,33.3,20.9,23.68,NNE,31,0.0,5.8,60,0.00,,BKN055,0.00,VWS V14.01,2013-02-10 19:24:00,
2013-02-10 12:29:00,33.1,21.1,23.68,NW,316,2.2,5.8,61,0.00,,BKN055,0.00,VWS V14.01,2013-02-10 19:29:00,
2013-02-10 12:34:00,32.9,21.7,23.68,WSW,254,4.0,5.8,63,0.00,,BKN055,0.00,VWS V14.01,2013-02-10 19:34:00,
2013-02-10 12:39:00,32.9,22.4,23.68,North,357,6.3,6.3,65,0.00,,BKN055,0.00,VWS V14.01,2013-02-10 19:39:00,
2013-02-10 12:44:00,33.1,22.6,23.68,North,6,2.2,5.4,65,0.00,,BKN055,0.00,VWS V14.01,2013-02-10 19:44:00,
2013-02-10 12:49:00,33.1,21.5,23.68,East,96,3.6,6.7,62,0.00,,OVC050,0.00,VWS V14.01,2013-02-10 19:49:00,
2013-02-10 12:54:00,33.3,21.3,23.68,SW,235,4.0,6.7,61,0.00,,OVC050,0.00,VWS V14.01,2013-02-10 19:54:00,
2013-02-10 12:59:00,33.6,20.8,23.68,West,260,3.6,6.7,59,0.00,,OVC050,0.00,VWS V14.01,2013-02-10 19:59:00,
2013-02-10 13:04:00,33.6,21.2,23.68,NNW,346,0.0,7.6,60,0.00,,OVC050,0.00,VWS V14.01,2013-02-10 20:04:00,
2013-02-10 13:09:00,34.5,21.7,23.68,WNW,297,2.7,5.4,59,0.00,,OVC050,0.00,VWS V14.01,2013-02-10 20:09:00,
2013-02-10 13:14:00,34.7,21.5,23.68,NNW,327,2.7,5.4,58,0.00,,OVC050,0.00,VWS V14.01,2013-02-10 20:14:00,
2013-02-10 13:19:00,34.7,21.0,23.68,North,353,2.7,8.1,57,0.00,,OVC050,0.00,VWS V14.01,2013-02-10 20:19:00,
2013-02-10 13:24:00,34.5,20.9,23.68,NNW,332,2.7,7.6,57,0.00,,OVC050,0.00,VWS V14.01,2013-02-10 20:24:00,
2013-02-10 13:29:00,34.2,20.5,23.65,North,357,6.7,7.6,57,0.00,,OVC050,0.00,VWS V14.01,2013-02-10 20:29:00,
2013-02-10 13:34:00,34.0,20.0,23.65,NNW,328,4.0,8.1,56,0.00,,OVC050,0.00,VWS V14.01,2013-02-10 20:34:00,
2013-02-10 13:39:00,34.0,20.8,23.65,WSW,239,5.4,10.5,58,0.00,,OVC050,0.00,VWS V14.01,2013-02-10 20:39:00,
2013-02-10 13:44:00,34.3,20.7,23.65,NE,45,2.7,6.7,57,0.00,,OVC050,0.00,VWS V14.01,2013-02-10 20:44:00,
2013-02-10 13:49:00,34.5,20.9,23.65,NE,55,10.1,10.1,57,0.00,,OVC050,0.00,VWS V14.01,2013-02-10 20:49:00,
2013-02-10 13:54:00,34.7,21.0,23.65,NNE,19,4.0,10.1,57,0.00,,OVC050,0.00,VWS V14.01,2013-02-10 20:54:00,
2013-02-10 13:59:00,35.4,22.1,23.65,NW,308,6.3,10.1,58,0.00,,OVC050,0.00,VWS V14.01,2013-02-10 20:59:00,
2013-02-10 14:04:00,35.6,21.5,23.65,North,9,3.6,8.1,56,0.00,,BKN080,0.00,VWS V14.01,2013-02-10 21:04:00,
2013-02-10 14:09:00,36.0,22.2,23.65,West,277,3.6,4.5,57,0.00,,BKN080,0.00,VWS V14.01,2013-02-10 21:09:00,
2013-02-10 14:14:00,35.4,20.9,23.65,North,353,3.6,5.4,55,0.00,,BKN080,0.00,VWS V14.01,2013-02-10 21:14:00,
2013-02-10 14:19:00,34.9,21.2,23.65,NNW,337,2.7,6.3,57,0.00,,BKN080,0.00,VWS V14.01,2013-02-10 21:19:00,
2013-02-10 14:24:00,34.5,21.7,23.65,SW,224,5.4,5.4,59,0.00,,BKN080,0.00,VWS V14.01,2013-02-10 21:24:00,
2013-02-10 14:29:00,34.2,21.3,23.65,North,350,4.9,5.4,59,0.00,,BKN080,0.00,VWS V14.01,2013-02-10 21:29:00,
2013-02-10 14:34:00,33.6,21.6,23.65,WSW,239,0.0,5.4,61,0.00,,BKN080,0.00,VWS V14.01,2013-02-10 21:34:00,
2013-02-10 14:39:00,33.4,21.8,23.65,North,353,3.6,5.4,62,0.00,,,0.00,VWS V14.01,2013-02-10 21:39:00,
2013-02-10 14:44:00,33.6,22.8,23.65,North,4,3.6,4.0,64,0.00,,,0.00,VWS V14.01,2013-02-10 21:44:00,
2013-02-10 14:49:00,33.6,21.6,23.65,WSW,245,5.4,5.4,61,0.00,,OVC080,0.00,VWS V14.01,2013-02-10 21:49:00,
2013-02-10 14:54:00,33.4,21.8,23.65,NW,315,2.7,5.4,62,0.00,,OVC080,0.00,VWS V14.01,2013-02-10 21:54:00,
2013-02-10 14:59:00,33.4,21.5,23.65,NW,320,0.0,6.3,61,0.00,,OVC080,0.00,VWS V14.01,2013-02-10 21:59:00,
2013-02-10 15:04:00,33.6,22.0,23.65,NNW,334,6.3,8.1,62,0.00,,OVC080,0.00,VWS V14.01,2013-02-10 22:04:00,
2013-02-10 15:09:00,33.6,22.0,23.65,NW,324,3.6,7.6,62,0.00,,OVC080,0.00,VWS V14.01,2013-02-10 22:09:00,
2013-02-10 15:14:00,33.6,22.0,23.65,WNW,293,4.0,7.6,62,0.00,,OVC080,0.00,VWS V14.01,2013-02-10 22:14:00,
2013-02-10 15:19:00,33.8,21.4,23.65,NW,312,3.1,7.6,60,0.00,,OVC080,0.00,VWS V14.01,2013-02-10 22:19:00,
2013-02-10 15:24:00,33.6,21.2,23.65,NNW,336,2.7,6.3,60,0.00,,OVC080,0.00,VWS V14.01,2013-02-10 22:24:00,
2013-02-10 15:29:00,33.6,22.0,23.65,South,169,3.6,6.3,62,0.00,,OVC080,0.00,VWS V14.01,2013-02-10 22:29:00,
2013-02-10 15:34:00,33.6,22.8,23.65,West,265,5.4,6.3,64,0.00,,OVC080,0.00,VWS V14.01,2013-02-10 22:34:00,
2013-02-10 15:39:00,33.3,22.4,23.65,ENE,61,4.9,4.9,64,0.00,,OVC080,0.00,VWS V14.01,2013-02-10 22:39:00,
2013-02-10 15:44:00,33.1,22.2,23.65,WSW,238,5.4,5.4,64,0.00,,OVC080,0.00,VWS V14.01,2013-02-10 22:44:00,
2013-02-10 15:49:00,33.1,22.6,23.65,SW,225,3.1,5.4,65,0.00,,BKN041,0.00,VWS V14.01,2013-02-10 22:49:00,
2013-02-10 15:54:00,33.1,23.0,23.65,SW,217,3.1,5.8,66,0.00,,BKN041,0.00,VWS V14.01,2013-02-10 22:54:00,
2013-02-10 15:59:00,33.1,23.3,23.65,North,0,2.7,5.8,67,0.00,,BKN041,0.00,VWS V14.01,2013-02-10 22:59:00,
2013-02-10 16:04:00,33.1,23.3,23.65,NNW,341,2.7,4.0,67,0.00,,BKN041,0.00,VWS V14.01,2013-02-10 23:04:00,
2013-02-10 16:09:00,32.9,23.5,23.65,NW,326,3.1,4.0,68,0.00,,BKN041,0.00,VWS V14.01,2013-02-10 23:09:00,
2013-02-10 16:14:00,32.5,23.5,23.65,West,279,0.0,4.0,69,0.00,,BKN041,0.00,VWS V14.01,2013-02-10 23:14:00,
2013-02-10 16:19:00,32.4,23.7,23.65,North,353,0.0,4.0,70,0.00,,BKN041,0.00,VWS V14.01,2013-02-10 23:19:00,
2013-02-10 16:24:00,32.4,24.0,23.65,NNW,334,0.0,0.0,71,0.00,,BKN041,0.00,VWS V14.01,2013-02-10 23:24:00,
2013-02-10 16:29:00,32.4,24.4,23.65,WNW,288,0.0,4.0,72,0.00,,BKN041,0.00,VWS V14.01,2013-02-10 23:29:00,
2013-02-10 16:34:00,32.2,24.5,23.65,NW,315,3.6,8.1,73,0.00,,BKN041,0.00,VWS V14.01,2013-02-10 23:34:00,
2013-02-10 16:39:00,31.8,24.2,23.65,ENE,64,5.4,8.1,73,0.00,,BKN041,0.00,VWS V14.01,2013-02-10 23:39:00,
2013-02-10 16:44:00,31.3,24.0,23.65,North,357,0.0,8.3,74,0.00,,BKN041,0.00,VWS V14.01,2013-02-10 23:44:00,
2013-02-10 16:49:00,30.9,23.9,23.65,NW,309,3.6,8.3,75,0.00,,OVC065,0.00,VWS V14.01,2013-02-10 23:49:00,
2013-02-10 16:54:00,30.7,24.1,23.65,NNW,343,0.0,8.3,76,0.00,,OVC065,0.00,VWS V14.01,2013-02-10 23:54:00,
2013-02-10 16:59:00,30.7,24.1,23.65,WSW,252,0.0,8.3,76,0.00,,OVC065,0.00,VWS V14.01,2013-02-10 23:59:00,
2013-02-10 17:04:00,30.7,24.1,23.65,ESE,106,2.2,2.7,76,0.00,,OVC065,0.00,VWS V14.01,2013-02-11 00:04:00,
2013-02-10 17:09:00,30.6,24.2,23.65,NNW,344,0.0,4.9,77,0.00,,OVC065,0.00,VWS V14.01,2013-02-11 00:09:00,
2013-02-10 17:14:00,30.6,24.2,23.68,SSE,168,6.3,6.3,77,0.00,,OVC065,0.00,VWS V14.01,2013-02-11 00:14:00,
2013-02-10 17:19:00,30.2,24.5,23.68,NNW,346,0.0,6.3,79,0.00,,,0.00,VWS V14.01,2013-02-11 00:19:00,
2013-02-10 17:24:00,30.2,24.5,23.68,WSW,257,3.6,4.9,79,0.00,,,0.00,VWS V14.01,2013-02-11 00:24:00,
2013-02-10 17:29:00,30.2,24.8,23.68,NNW,333,0.0,4.9,80,0.00,,,0.00,VWS V14.01,2013-02-11 00:29:00,
2013-02-10 17:34:00,30.2,24.5,23.68,NW,315,4.9,4.9,79,0.00,,,0.00,VWS V14.01,2013-02-11 00:34:00,
2013-02-10 17:39:00,30.2,24.5,23.68,NW,313,0.0,5.4,79,0.00,,,0.00,VWS V14.01,2013-02-11 00:39:00,
2013-02-10 17:44:00,30.0,24.0,23.68,West,263,3.1,4.9,78,0.00,,,0.00,VWS V14.01,2013-02-11 00:44:00,
2013-02-10 17:49:00,30.0,24.0,23.68,NW,310,2.7,4.9,78,0.00,,,0.00,VWS V14.01,2013-02-11 00:49:00,
2013-02-10 17:54:00,29.8,23.5,23.68,WSW,258,4.0,5.4,77,0.00,,,0.00,VWS V14.01,2013-02-11 00:54:00,
2013-02-10 17:59:00,29.8,23.5,23.68,NNW,332,0.0,5.4,77,0.00,,,0.00,VWS V14.01,2013-02-11 00:59:00,
2013-02-10 18:04:00,29.8,23.5,23.68,NNW,348,2.7,3.1,77,0.00,,,0.00,VWS V14.01,2013-02-11 01:04:00,
2013-02-10 18:09:00,30.0,23.7,23.68,NNE,21,0.0,0.0,77,0.00,,,0.00,VWS V14.01,2013-02-11 01:09:00,
2013-02-10 18:14:00,30.2,23.9,23.68,NNW,344,0.0,0.0,77,0.00,,,0.00,VWS V14.01,2013-02-11 01:14:00,
2013-02-10 18:19:00,30.0,23.7,23.68,South,177,2.2,4.0,77,0.00,,,0.00,VWS V14.01,2013-02-11 01:19:00,
2013-02-10 18:24:00,30.2,23.9,23.68,SSW,207,0.0,3.1,77,0.00,,,0.00,VWS V14.01,2013-02-11 01:24:00,
2013-02-10 18:29:00,30.2,23.9,23.68,NW,321,0.0,3.1,77,0.00,,,0.00,VWS V14.01,2013-02-11 01:29:00,
2013-02-10 18:34:00,30.0,23.7,23.68,SW,236,0.0,3.1,77,0.00,,,0.00,VWS V14.01,2013-02-11 01:34:00,
2013-02-10 18:39:00,30.0,23.7,23.68,NNW,331,2.2,3.1,77,0.00,,,0.00,VWS V14.01,2013-02-11 01:39:00,
2013-02-10 18:44:00,29.8,23.5,23.68,SSE,163,0.0,4.5,77,0.00,,,0.00,VWS V14.01,2013-02-11 01:44:00,
2013-02-10 18:49:00,29.8,23.5,23.68,NNE,26,2.2,5.4,77,0.00,,,0.00,VWS V14.01,2013-02-11 01:49:00,
2013-02-10 18:54:00,29.8,23.5,23.68,NNE,28,0.0,5.4,77,0.00,,,0.00,VWS V14.01,2013-02-11 01:54:00,
2013-02-10 18:59:00,29.8,23.8,23.68,WSW,257,0.0,5.4,78,0.00,,,0.00,VWS V14.01,2013-02-11 01:59:00,
2013-02-10 19:04:00,29.7,23.6,23.68,NNW,341,0.0,0.0,78,0.00,,,0.00,VWS V14.01,2013-02-11 02:04:00,
2013-02-10 19:09:00,29.7,23.6,23.68,NNW,341,0.0,0.0,78,0.00,,,0.00,VWS V14.01,2013-02-11 02:09:00,
2013-02-10 19:14:00,29.7,23.6,23.68,WSW,252,0.0,0.0,78,0.00,,,0.00,VWS V14.01,2013-02-11 02:14:00,
2013-02-10 19:19:00,29.7,23.6,23.68,WSW,257,0.0,0.0,78,0.00,,,0.00,VWS V14.01,2013-02-11 02:19:00,
2013-02-10 19:24:00,29.5,23.5,23.68,WSW,257,0.0,0.0,78,0.00,,,0.00,VWS V14.01,2013-02-11 02:24:00,
2013-02-10 19:29:00,29.5,23.5,23.68,South,169,0.0,0.0,78,0.00,,,0.00,VWS V14.01,2013-02-11 02:29:00,
2013-02-10 19:34:00,29.3,23.6,23.68,South,169,0.0,0.0,79,0.00,,,0.00,VWS V14.01,2013-02-11 02:34:00,
2013-02-10 19:39:00,29.3,23.6,23.68,South,169,0.0,0.0,79,0.00,,,0.00,VWS V14.01,2013-02-11 02:39:00,
2013-02-10 19:44:00,29.1,23.4,23.68,South,169,0.0,0.0,79,0.00,,,0.00,VWS V14.01,2013-02-11 02:44:00,
2013-02-10 19:49:00,29.1,23.4,23.68,South,169,0.0,0.0,79,0.00,,,0.00,VWS V14.01,2013-02-11 02:49:00,
2013-02-10 19:54:00,28.9,23.3,23.68,South,169,0.0,0.0,79,0.00,,,0.00,VWS V14.01,2013-02-11 02:54:00,
2013-02-10 19:59:00,28.8,23.1,23.68,South,169,0.0,0.0,79,0.00,,,0.00,VWS V14.01,2013-02-11 02:59:00,
2013-02-10 20:04:00,28.6,22.9,23.68,South,169,0.0,0.0,79,0.00,,,0.00,VWS V14.01,2013-02-11 03:04:00,
2013-02-10 20:09:00,28.4,23.0,23.68,South,169,0.0,0.0,80,0.00,,,0.00,VWS V14.01,2013-02-11 03:09:00,
2013-02-10 20:14:00,28.2,22.9,23.68,South,169,0.0,0.0,80,0.00,,,0.00,VWS V14.01,2013-02-11 03:14:00,
2013-02-10 20:19:00,27.7,22.3,23.68,South,169,0.0,0.0,80,0.00,,,0.00,VWS V14.01,2013-02-11 03:19:00,
2013-02-10 20:24:00,27.1,21.8,23.68,South,169,0.0,0.0,80,0.00,,,0.00,VWS V14.01,2013-02-11 03:24:00,
2013-02-10 20:29:00,27.0,21.6,23.71,South,169,0.0,0.0,80,0.00,,,0.00,VWS V14.01,2013-02-11 03:29:00,
2013-02-10 20:34:00,27.0,21.9,23.71,South,169,0.0,0.0,81,0.00,,,0.00,VWS V14.01,2013-02-11 03:34:00,
2013-02-10 20:39:00,27.0,21.9,23.71,South,169,0.0,0.0,81,0.00,,,0.00,VWS V14.01,2013-02-11 03:39:00,
2013-02-10 20:44:00,26.8,21.7,23.68,South,169,0.0,0.0,81,0.00,,,0.00,VWS V14.01,2013-02-11 03:44:00,
2013-02-10 20:49:00,26.4,21.4,23.68,South,169,0.0,0.0,81,0.00,,,0.00,VWS V14.01,2013-02-11 03:49:00,
2013-02-10 20:54:00,26.2,21.2,23.68,South,169,0.0,0.0,81,0.00,,,0.00,VWS V14.01,2013-02-11 03:54:00,
2013-02-10 20:58:00,26.2,21.2,23.71,South,169,0.0,0.0,81,0.00,,,0.00,VWS V14.01,2013-02-11 03:58:00,